Airfield :
LOGIN :

Register | Disclaimer

   EN    FR    IT 

 










Legend :    VFR   Marginal VFR   IFR   Intensive IFR   Very Intensive IFR
Visi :
Ceiling :
>= 8 km
>= 3000ft
5 to 8 km
1000 to 3000 ft
1500m to 5 km
500 to 1000 ft
800 to 1500m
200 to 500 ft
< 800m
< 200 ft
Symbols :   Thunderstorms  Fog  Heavy snow  Heavy precipitations  Wind > 20 kt
SIGMETs :     Misc.  Thunderstorms  Icing  Turbulence  Mountain Waves  Volcanic Ashes






- Airport Elevation : 142 ft
- IATA code : ALC


LEAL - Alicante

CURRENT METAR :
  • 120700Z 23006KT 200V260 9999 FEW045 23/18 Q1014 NOSIG

EXPIRED METARs :
  • 120630Z 22005KT 190V250 CAVOK 23/19 Q1013 NOSIG
  • 120600Z 20004KT 160V220 CAVOK 22/20 Q1013 NOSIG
  • 120530Z 28005KT 220V330 CAVOK 23/19 Q1012 NOSIG
  • 120500Z 30004KT 270V330 CAVOK 23/20 Q1012 NOSIG
  • 120430Z 25004KT 210V270 9999 FEW035 23/20 Q1012 NOSIG

TAF TAF LEAL
Valid from the 12 at 06:00 until the 13 at 06:00 UTC


120500Z 1206/1306 35005KT 9999 BKN012 TX33/1213Z TN23/1306Z
TEMPO 1206/1212 FEW030CB
BECMG 1208/1210 18015G25KT
BECMG 1217/1219 VRB04KT



MET'MAP, your aeronautical weather chart ! - Copyright ORBIFLY December 2007 - Disclaimer

ORBIFLY MET'MAP TEAM :

Programming & Development : Alexandra Zaïnal
Concept & original design : Baudouin d'Aumeries
Assistance for programming : Marc-Olivier Méhu
Technical & hardware support : Manuel Goepfert

Contact : metmap@orbifly.com




SOURCES & CREDITS :

   NOAA